Hlavní strana
METAR-TAF:

METAR-TAF

Letiště :

Záporoží, Ukrajina

zeměpisná šířka: 47-52-02N, zeměpisná délka: 035-18-59E, výška: 114 m

Aktuální stav počasí

Zpráva byla vytvořena před 13 minutami, v 05:00 UTC
Severní vítr 10 kt, proměnlivý mezi severozápadním a severoseverovýchodním
Teplota 22°C
Vlhkost vzduchu 69%
Tlak 1014 hPa
Viditelnost 10 km a více
Žádná oblačnost pod 1500 m, nevyskytují se cumulonimby.

METAR: UKDE 220500Z 35005MPS 310V020 CAVOK 22/16 Q1014 R02R/CLRD70 NOSIG

Čas: 08:13 (05:13 UTC)

Předpověď počasí

Zpráva byla vytvořena před 3 hodinami a 8 minutami, v 02:05 UTC
Předpověď platná od 22 v 03 UTC do 22 v 12 UTC
vítr z různých směrů 2 kt
Viditelnost 10 km a více
Polojasno ve výšce 3000 ft, Cumulonimbus.
Změna
od 22 v 06 UTC do 22 v 08 UTC
Severozápadní vítr 10 kt

TAF: UKDE 220205Z 2203/2212 VRB01MPS 9999 SCT030CB TX31/2212Z TN16/2203Z BECMG 2206/2208 31005MPS

Stav a předpovědi počasí z více než 4 000 letišť (zprávy METAR a TAF).

Červené a žluté tečky na mapě představují dostupné meteorologické stanice.

Když kurzor umístíte na tečku, zobrazí se název stanice.

Pak kliknutím zobrazíte stav a předpověď počasí.

Chcete-li změnit mapu, kliknutím na zelené tlačítko se znaménkem +mapu přiblížíte, kliknutím na zelené tlačítko se znaménkem – mapu oddálíte a kliknutím na zelené šipky přejdete na sousední mapy.


METAR-TAF: